Time;durP1;ratioP1;P1;durP2;ratioP2;P2;SDS_P1;SDS_P2;PMS_P1;PMS_P2;Temp;Humidity;BMP_temperature;BMP_pressure;BME280_temperature;BME280_humidity;BME280_pressure;Samples;Min_cycle;Max_cycle;Signal;HPM_P1;HPM_P2
2022/10/29 00:02:11;;;;;;;29.98;4.13;;;;;;;;;;5112106;27;20082;-77
2022/10/29 00:04:37;;;;;;;34.33;4.97;;;;;;;;;;5133174;27;20053;-77
2022/10/29 00:07:03;;;;;;;35.85;4.95;;;;;;;;;;5093189;28;20040;-77
2022/10/29 00:09:29;;;;;;;34.45;4.72;;;;;;;;;;5115570;28;20063;-77
2022/10/29 00:11:57;;;;;;;30.90;4.40;;;;;;;;;;5107294;27;20158;-77
2022/10/29 00:14:23;;;;;;;36.60;5.15;;;;;;;;;;5130561;27;20454;-77
2022/10/29 00:16:49;;;;;;;30.00;4.75;;;;;;;;;;5125750;27;20046;-66
2022/10/29 00:19:15;;;;;;;26.33;3.97;;;;;;;;;;5131347;27;20045;-66
2022/10/29 00:21:41;;;;;;;26.80;4.30;;;;;;;;;;5115356;27;20047;-66
2022/10/29 00:24:10;;;;;;;31.70;4.47;;;;;;;;;;5120502;27;20446;-66
2022/10/29 00:26:36;;;;;;;25.15;4.93;;;;;;;;;;5136614;27;20054;-67
2022/10/29 00:29:03;;;;;;;38.78;5.25;;;;;;;;;;5133916;27;20122;-66
2022/10/29 00:31:29;;;;;;;32.75;5.90;;;;;;;;;;5113921;27;20047;-67
2022/10/29 00:33:55;;;;;;;26.75;4.22;;;;;;;;;;5118143;27;20110;-67
2022/10/29 00:36:23;;;;;;;34.30;4.78;;;;;;;;;;5136310;27;20035;-67
2022/10/29 00:38:50;;;;;;;31.73;4.93;;;;;;;;;;5117246;27;20074;-67
2022/10/29 00:41:17;;;;;;;24.52;4.13;;;;;;;;;;5098763;28;20051;-67
2022/10/29 00:43:46;;;;;;;30.20;4.43;;;;;;;;;;5102468;27;20047;-67
2022/10/29 00:46:32;;;;;;;28.75;4.25;;;;;;;;;;5144210;27;20127;-67
2022/10/29 00:48:59;;;;;;;24.45;4.25;;;;;;;;;;5116201;27;20035;-67
2022/10/29 00:51:26;;;;;;;21.90;4.63;;;;;;;;;;5137453;27;20415;-67
2022/10/29 00:54:01;;;;;;;19.45;4.10;;;;;;;;;;5117650;27;20039;-67
2022/10/29 00:56:28;;;;;;;24.77;4.80;;;;;;;;;;5137437;27;20091;-67
2022/10/29 00:58:55;;;;;;;25.48;4.38;;;;;;;;;;5117433;27;20051;-67
2022/10/29 01:01:21;;;;;;;24.55;4.45;;;;;;;;;;5138654;27;20110;-67
2022/10/29 01:03:47;;;;;;;28.95;5.47;;;;;;;;;;5134810;27;20045;-67
2022/10/29 01:06:14;;;;;;;23.90;5.60;;;;;;;;;;5098916;27;20042;-66
2022/10/29 01:08:40;;;;;;;31.88;5.47;;;;;;;;;;5126497;27;20519;-67
2022/10/29 01:11:25;;;;;;;24.08;4.72;;;;;;;;;;5116320;27;20051;-67
2022/10/29 01:14:03;;;;;;;29.70;5.55;;;;;;;;;;5123908;27;20517;-67
2022/10/29 01:16:41;;;;;;;22.85;5.00;;;;;;;;;;5101276;27;20067;-67
2022/10/29 01:19:20;;;;;;;29.15;5.80;;;;;;;;;;5116886;27;20039;-66
2022/10/29 01:21:52;;;;;;;24.63;5.43;;;;;;;;;;5137306;27;20098;-66
2022/10/29 01:24:25;;;;;;;26.33;5.07;;;;;;;;;;5136938;27;20088;-77
2022/10/29 01:27:09;;;;;;;21.02;5.55;;;;;;;;;;5125026;27;20050;-77
2022/10/29 01:30:08;;;;;;;24.77;5.13;;;;;;;;;;5139626;27;20035;-77
2022/10/29 01:32:34;;;;;;;12.77;3.53;;;;;;;;;;5064198;27;20054;-77
2022/10/29 01:35:04;;;;;;;28.25;6.28;;;;;;;;;;5134519;27;20040;-77
2022/10/29 01:37:49;;;;;;;28.60;6.50;;;;;;;;;;5135457;27;20483;-78
2022/10/29 01:40:21;;;;;;;26.33;6.53;;;;;;;;;;5117569;27;20035;-78
2022/10/29 01:42:49;;;;;;;23.60;6.00;;;;;;;;;;5094417;27;20451;-77
2022/10/29 01:45:33;;;;;;;30.35;6.68;;;;;;;;;;5136309;27;20042;-77
2022/10/29 01:48:02;;;;;;;33.65;7.60;;;;;;;;;;5137076;27;20043;-77
2022/10/29 01:50:28;;;;;;;36.05;8.98;;;;;;;;;;5118016;27;20480;-78
2022/10/29 01:52:55;;;;;;;39.15;8.32;;;;;;;;;;5131520;27;20032;-78
2022/10/29 01:55:23;;;;;;;30.83;8.20;;;;;;;;;;5117497;27;20127;-77
2022/10/29 01:57:49;;;;;;;33.83;8.48;;;;;;;;;;5134962;27;20059;-77
2022/10/29 02:00:16;;;;;;;38.78;9.30;;;;;;;;;;5121589;27;20411;-77
2022/10/29 02:02:57;;;;;;;34.90;8.63;;;;;;;;;;5133354;27;20078;-77
2022/10/29 02:05:28;;;;;;;29.20;8.05;;;;;;;;;;5097865;27;20491;-77
2022/10/29 02:08:04;;;;;;;36.03;8.40;;;;;;;;;;5101083;27;20067;-78
2022/10/29 02:10:40;;;;;;;36.55;8.80;;;;;;;;;;5136643;27;20039;-77
2022/10/29 02:13:09;;;;;;;50.50;9.15;;;;;;;;;;5115623;27;20399;-77
2022/10/29 02:15:37;;;;;;;91.32;9.95;;;;;;;;;;5116106;27;20035;-67
2022/10/29 02:18:04;;;;;;;81.80;9.60;;;;;;;;;;5133847;27;20039;-67
2022/10/29 02:20:30;;;;;;;37.45;7.82;;;;;;;;;;5144676;27;20042;-67
2022/10/29 02:22:56;;;;;;;48.42;8.98;;;;;;;;;;5136929;27;20134;-67
2022/10/29 02:25:23;;;;;;;67.82;10.00;;;;;;;;;;5115473;27;20391;-67
2022/10/29 02:27:49;;;;;;;113.35;10.93;;;;;;;;;;5134039;27;20437;-67
2022/10/29 02:30:15;;;;;;;138.05;11.18;;;;;;;;;;5114160;27;20035;-67
2022/10/29 02:32:41;;;;;;;75.32;10.20;;;;;;;;;;5135054;27;20043;-67
2022/10/29 02:35:08;;;;;;;127.70;11.13;;;;;;;;;;5128059;27;20042;-67
2022/10/29 02:37:34;;;;;;;96.28;9.73;;;;;;;;;;5134081;27;20070;-68
2022/10/29 02:40:00;;;;;;;72.13;10.15;;;;;;;;;;5097717;27;20038;-67
2022/10/29 02:42:26;;;;;;;87.35;9.27;;;;;;;;;;5116240;27;20043;-67
2022/10/29 02:44:52;;;;;;;47.90;8.63;;;;;;;;;;5133437;27;20392;-67
2022/10/29 02:47:18;;;;;;;31.95;7.32;;;;;;;;;;5102262;27;20127;-67
2022/10/29 02:49:44;;;;;;;51.42;8.45;;;;;;;;;;5134171;27;20548;-67
2022/10/29 02:52:11;;;;;;;99.47;9.60;;;;;;;;;;5113113;27;20399;-67
2022/10/29 02:54:38;;;;;;;64.05;9.25;;;;;;;;;;5115109;27;20143;-78
2022/10/29 02:57:04;;;;;;;73.18;9.30;;;;;;;;;;5113901;27;20096;-78
2022/10/29 02:59:30;;;;;;;92.78;9.70;;;;;;;;;;5111339;27;20038;-78
2022/10/29 03:01:56;;;;;;;103.70;11.35;;;;;;;;;;5111629;27;20035;-78
2022/10/29 03:04:22;;;;;;;105.82;10.70;;;;;;;;;;5129889;27;20084;-78
2022/10/29 03:06:48;;;;;;;80.32;9.95;;;;;;;;;;5105642;27;20039;-77
2022/10/29 03:09:14;;;;;;;119.88;10.57;;;;;;;;;;5115760;27;20047;-78
2022/10/29 03:11:40;;;;;;;161.32;11.75;;;;;;;;;;5114519;27;20055;-77
2022/10/29 03:14:06;;;;;;;138.75;11.40;;;;;;;;;;5133851;27;20412;-78
2022/10/29 03:16:32;;;;;;;106.65;10.73;;;;;;;;;;5114730;27;20074;-78
2022/10/29 03:18:58;;;;;;;150.98;15.07;;;;;;;;;;5135258;27;20031;-78
2022/10/29 03:21:24;;;;;;;107.78;13.90;;;;;;;;;;5133136;27;20039;-78
2022/10/29 03:23:50;;;;;;;79.88;11.77;;;;;;;;;;5115938;27;20039;-77
2022/10/29 03:26:16;;;;;;;119.32;14.77;;;;;;;;;;5114861;27;20039;-77
2022/10/29 03:28:42;;;;;;;77.78;12.35;;;;;;;;;;5088553;27;20036;-77
2022/10/29 03:31:09;;;;;;;54.30;12.73;;;;;;;;;;5115704;27;20042;-77
2022/10/29 03:33:35;;;;;;;86.00;14.25;;;;;;;;;;5137954;27;20372;-77
2022/10/29 03:36:02;;;;;;;63.85;14.25;;;;;;;;;;5133543;27;20042;-77
2022/10/29 03:38:28;;;;;;;60.80;14.05;;;;;;;;;;5132459;27;20045;-77
2022/10/29 03:40:55;;;;;;;58.60;13.73;;;;;;;;;;5134167;27;20382;-77
2022/10/29 03:43:21;;;;;;;96.30;15.80;;;;;;;;;;5117269;27;20054;-77
2022/10/29 03:45:54;;;;;;;62.17;14.98;;;;;;;;;;5133547;27;20084;-77
2022/10/29 03:48:20;;;;;;;45.17;14.05;;;;;;;;;;5114651;27;20047;-77
2022/10/29 03:50:55;;;;;;;41.50;14.80;;;;;;;;;;5115167;27;20031;-78
2022/10/29 03:53:22;;;;;;;43.72;14.98;;;;;;;;;;5133613;27;20468;-77
2022/10/29 03:55:49;;;;;;;52.65;16.25;;;;;;;;;;5115600;27;20476;-77
2022/10/29 03:58:15;;;;;;;61.83;17.20;;;;;;;;;;5123338;27;20036;-77
2022/10/29 04:00:41;;;;;;;60.60;17.45;;;;;;;;;;5130135;27;20091;-77
2022/10/29 04:03:07;;;;;;;43.80;15.32;;;;;;;;;;5113485;27;20377;-77
2022/10/29 04:05:33;;;;;;;72.85;18.52;;;;;;;;;;5132807;27;20081;-77
2022/10/29 04:07:59;;;;;;;60.50;16.63;;;;;;;;;;5096281;28;20043;-77
2022/10/29 04:10:25;;;;;;;54.42;16.20;;;;;;;;;;5123473;27;20039;-77
2022/10/29 04:12:52;;;;;;;72.82;16.73;;;;;;;;;;5135275;27;20146;-77
2022/10/29 04:15:18;;;;;;;54.83;15.85;;;;;;;;;;5143553;27;20107;-77
2022/10/29 04:17:44;;;;;;;63.83;16.77;;;;;;;;;;5131502;27;20035;-77
2022/10/29 04:20:10;;;;;;;57.35;16.83;;;;;;;;;;5118885;27;20091;-77
2022/10/29 04:22:36;;;;;;;65.18;16.08;;;;;;;;;;5132396;28;20039;-77
2022/10/29 04:25:03;;;;;;;40.30;14.27;;;;;;;;;;5133065;28;20031;-77
2022/10/29 04:27:30;;;;;;;51.35;15.30;;;;;;;;;;5114531;28;20522;-77
2022/10/29 04:29:56;;;;;;;50.50;14.80;;;;;;;;;;5128289;28;20475;-77
2022/10/29 04:32:22;;;;;;;70.10;16.52;;;;;;;;;;5129173;27;20058;-77
2022/10/29 04:34:48;;;;;;;27.60;12.73;;;;;;;;;;5095482;28;20036;-67
2022/10/29 04:37:15;;;;;;;48.00;15.73;;;;;;;;;;5135683;27;20032;-67
2022/10/29 04:39:41;;;;;;;49.85;16.05;;;;;;;;;;5122701;27;20059;-67
2022/10/29 04:42:07;;;;;;;40.33;13.65;;;;;;;;;;5130687;27;20047;-67
2022/10/29 04:44:33;;;;;;;45.25;15.13;;;;;;;;;;5104605;28;20074;-67
2022/10/29 04:46:59;;;;;;;38.08;13.20;;;;;;;;;;5119321;27;20809;-67
2022/10/29 04:49:25;;;;;;;44.65;14.75;;;;;;;;;;5099660;28;20091;-67
2022/10/29 04:51:51;;;;;;;56.10;15.68;;;;;;;;;;5132006;27;20070;-67
2022/10/29 04:54:17;;;;;;;54.33;15.80;;;;;;;;;;5118087;28;20038;-67
2022/10/29 04:56:43;;;;;;;18.67;9.45;;;;;;;;;;5103177;28;20038;-68
2022/10/29 04:59:09;;;;;;;28.65;13.90;;;;;;;;;;5129783;27;20050;-68
2022/10/29 05:01:35;;;;;;;38.38;12.82;;;;;;;;;;5131957;27;20041;-68
2022/10/29 05:04:01;;;;;;;47.75;15.15;;;;;;;;;;5113623;28;20065;-68
2022/10/29 05:06:27;;;;;;;38.03;15.05;;;;;;;;;;5132580;27;20095;-68
2022/10/29 05:08:53;;;;;;;81.28;17.30;;;;;;;;;;5144112;27;20037;-67
2022/10/29 05:11:19;;;;;;;44.90;14.05;;;;;;;;;;5135936;27;20100;-67
2022/10/29 05:13:45;;;;;;;87.90;18.92;;;;;;;;;;5116958;27;20104;-67
2022/10/29 05:16:11;;;;;;;42.03;15.80;;;;;;;;;;5118920;27;20088;-67
2022/10/29 05:18:38;;;;;;;61.67;16.45;;;;;;;;;;5118587;27;20447;-67
2022/10/29 05:21:04;;;;;;;61.63;14.43;;;;;;;;;;5133526;27;20043;-68
2022/10/29 05:23:30;;;;;;;66.30;15.00;;;;;;;;;;5124172;27;20035;-68
2022/10/29 05:25:56;;;;;;;103.43;16.98;;;;;;;;;;5135532;27;20047;-67
2022/10/29 05:28:23;;;;;;;112.97;17.30;;;;;;;;;;5099960;27;20126;-77
2022/10/29 05:30:50;;;;;;;131.35;15.18;;;;;;;;;;5097064;27;20051;-77
2022/10/29 05:33:21;;;;;;;194.48;16.45;;;;;;;;;;5116786;27;20100;-77
2022/10/29 05:35:47;;;;;;;121.85;14.15;;;;;;;;;;5103711;27;20119;-67
2022/10/29 05:38:14;;;;;;;289.67;20.40;;;;;;;;;;5126977;27;20107;-67
2022/10/29 05:40:43;;;;;;;208.38;16.48;;;;;;;;;;5136683;27;20031;-67
2022/10/29 05:43:09;;;;;;;205.45;16.42;;;;;;;;;;5117137;27;20071;-67
2022/10/29 05:45:35;;;;;;;245.75;17.50;;;;;;;;;;5102676;27;20046;-67
2022/10/29 05:48:02;;;;;;;254.68;18.20;;;;;;;;;;5135647;27;20059;-67
2022/10/29 05:50:29;;;;;;;220.55;16.92;;;;;;;;;;5121708;27;20027;-67
2022/10/29 05:52:56;;;;;;;298.40;20.13;;;;;;;;;;5128130;27;20038;-67
2022/10/29 05:55:22;;;;;;;125.47;13.60;;;;;;;;;;5126347;27;20039;-67
2022/10/29 05:57:48;;;;;;;194.20;17.00;;;;;;;;;;5105858;28;20079;-67
2022/10/29 06:00:14;;;;;;;150.40;16.17;;;;;;;;;;5123722;27;20122;-77
2022/10/29 06:02:44;;;;;;;161.15;16.08;;;;;;;;;;5138205;27;20038;-77
2022/10/29 06:05:10;;;;;;;147.90;17.02;;;;;;;;;;5119019;27;20046;-77
2022/10/29 06:07:36;;;;;;;153.50;17.80;;;;;;;;;;5099583;27;20039;-77
2022/10/29 06:10:02;;;;;;;156.70;19.25;;;;;;;;;;5079436;28;20138;-77
2022/10/29 06:12:30;;;;;;;112.53;17.35;;;;;;;;;;5115037;27;20050;-77
2022/10/29 06:14:57;;;;;;;261.52;22.33;;;;;;;;;;5128699;27;20100;-77
2022/10/29 06:17:23;;;;;;;136.40;20.17;;;;;;;;;;5111345;27;20038;-77
2022/10/29 06:19:49;;;;;;;146.57;20.40;;;;;;;;;;5125569;27;20039;-77
2022/10/29 06:22:15;;;;;;;45.38;13.63;;;;;;;;;;5139426;27;20038;-78
2022/10/29 06:24:41;;;;;;;69.22;15.10;;;;;;;;;;5123932;27;20499;-77
2022/10/29 06:27:07;;;;;;;196.45;23.40;;;;;;;;;;5129496;27;20036;-77
2022/10/29 06:29:33;;;;;;;101.15;18.98;;;;;;;;;;5089289;27;20043;-77
2022/10/29 06:31:59;;;;;;;96.97;20.38;;;;;;;;;;5119304;27;20043;-77
2022/10/29 06:34:25;;;;;;;56.97;18.00;;;;;;;;;;5144007;27;20030;-77
2022/10/29 06:36:51;;;;;;;109.03;21.08;;;;;;;;;;5119333;27;20066;-77
2022/10/29 06:39:17;;;;;;;134.95;22.65;;;;;;;;;;5126987;27;20045;-77
2022/10/29 06:41:43;;;;;;;82.93;21.55;;;;;;;;;;5134570;27;20035;-77
2022/10/29 06:44:09;;;;;;;126.15;23.48;;;;;;;;;;5137411;27;20403;-78
2022/10/29 06:46:37;;;;;;;82.63;20.13;;;;;;;;;;5128414;27;20100;-77
2022/10/29 06:49:03;;;;;;;132.60;22.35;;;;;;;;;;5115869;27;20050;-77
2022/10/29 06:51:29;;;;;;;56.08;17.80;;;;;;;;;;5119648;27;20564;-77
2022/10/29 06:53:56;;;;;;;81.70;19.55;;;;;;;;;;5118706;27;20039;-67
2022/10/29 06:56:22;;;;;;;232.32;26.83;;;;;;;;;;5134361;27;20083;-67
2022/10/29 06:58:48;;;;;;;122.63;21.75;;;;;;;;;;5131224;27;20037;-67
2022/10/29 07:01:14;;;;;;;140.48;22.98;;;;;;;;;;5133421;27;20172;-67
2022/10/29 07:03:40;;;;;;;167.35;25.60;;;;;;;;;;5120367;27;20087;-68
2022/10/29 07:06:06;;;;;;;169.18;24.05;;;;;;;;;;5122474;27;20523;-67
2022/10/29 07:08:32;;;;;;;172.43;24.88;;;;;;;;;;5117812;27;20042;-67
2022/10/29 07:11:01;;;;;;;123.72;22.27;;;;;;;;;;5099286;27;20100;-67
2022/10/29 07:13:27;;;;;;;82.32;21.13;;;;;;;;;;5102658;27;20075;-78
2022/10/29 07:15:53;;;;;;;173.32;25.25;;;;;;;;;;5112339;27;20035;-67
2022/10/29 07:18:20;;;;;;;116.13;23.83;;;;;;;;;;5111839;27;20039;-67
2022/10/29 07:20:46;;;;;;;114.15;22.73;;;;;;;;;;5119066;27;20042;-68
2022/10/29 07:23:12;;;;;;;80.70;22.38;;;;;;;;;;5114523;27;20035;-68
2022/10/29 07:25:39;;;;;;;74.78;21.23;;;;;;;;;;5105880;27;20046;-68
2022/10/29 07:28:16;;;;;;;86.43;23.63;;;;;;;;;;5107726;27;20476;-68
2022/10/29 07:30:42;;;;;;;75.57;23.10;;;;;;;;;;5099450;27;20039;-68
2022/10/29 07:33:08;;;;;;;71.15;23.73;;;;;;;;;;5120489;27;20032;-68
2022/10/29 07:35:35;;;;;;;74.68;23.67;;;;;;;;;;5112356;27;20119;-68
2022/10/29 07:38:02;;;;;;;68.97;23.45;;;;;;;;;;5113276;28;20484;-68
2022/10/29 07:40:28;;;;;;;67.78;23.92;;;;;;;;;;5117283;27;20027;-68
2022/10/29 07:42:54;;;;;;;70.32;23.52;;;;;;;;;;5094589;28;20042;-68
2022/10/29 07:45:20;;;;;;;73.68;24.95;;;;;;;;;;5114022;28;20377;-68
2022/10/29 07:47:47;;;;;;;71.75;23.60;;;;;;;;;;5107155;28;20043;-68
2022/10/29 07:50:13;;;;;;;72.45;23.25;;;;;;;;;;5116981;27;20111;-68
2022/10/29 07:52:40;;;;;;;80.35;24.98;;;;;;;;;;5112797;28;20032;-68
2022/10/29 07:55:06;;;;;;;73.13;24.38;;;;;;;;;;5094931;28;20047;-68
2022/10/29 07:57:33;;;;;;;72.18;25.20;;;;;;;;;;5097064;27;20114;-68
2022/10/29 07:59:59;;;;;;;69.88;24.98;;;;;;;;;;5095803;28;20089;-68
2022/10/29 08:02:25;;;;;;;75.03;26.67;;;;;;;;;;5078823;28;20039;-68
2022/10/29 08:04:51;;;;;;;71.63;27.60;;;;;;;;;;5122276;27;20386;-68
2022/10/29 08:07:17;;;;;;;85.78;29.92;;;;;;;;;;5130147;27;20031;-68
2022/10/29 08:09:43;;;;;;;78.65;29.33;;;;;;;;;;5079510;28;20123;-68
2022/10/29 08:12:12;;;;;;;73.72;28.08;;;;;;;;;;5100121;28;20052;-68
2022/10/29 08:14:38;;;;;;;86.82;27.88;;;;;;;;;;5109650;28;20043;-68
2022/10/29 08:17:04;;;;;;;72.60;26.40;;;;;;;;;;5102216;28;20096;-68
2022/10/29 08:19:30;;;;;;;67.63;27.10;;;;;;;;;;5110175;28;20036;-68
2022/10/29 08:21:56;;;;;;;82.82;28.80;;;;;;;;;;5111220;28;20039;-68
2022/10/29 08:24:22;;;;;;;73.57;28.45;;;;;;;;;;5140122;27;20035;-68
2022/10/29 08:26:50;;;;;;;72.25;28.25;;;;;;;;;;5110231;28;20032;-68
2022/10/29 08:29:16;;;;;;;64.65;26.58;;;;;;;;;;5105998;28;20058;-68
2022/10/29 08:31:42;;;;;;;59.10;25.90;;;;;;;;;;5113225;28;20043;-72
2022/10/29 08:34:08;;;;;;;55.45;25.80;;;;;;;;;;5093991;28;20035;-71
2022/10/29 08:36:34;;;;;;;47.50;23.70;;;;;;;;;;5107435;27;20039;-72
2022/10/29 08:39:00;;;;;;;43.83;21.38;;;;;;;;;;5108770;28;20042;-72
2022/10/29 08:41:26;;;;;;;39.53;19.27;;;;;;;;;;5114304;27;20043;-73
2022/10/29 08:44:13;;;;;;;29.90;16.60;;;;;;;;;;5100576;28;20028;-78
2022/10/29 08:46:39;;;;;;;33.10;16.35;;;;;;;;;;5097902;28;20114;-79
2022/10/29 08:49:09;;;;;;;27.88;14.55;;;;;;;;;;5099761;27;20430;-70
2022/10/29 08:51:40;;;;;;;29.77;14.98;;;;;;;;;;5081844;28;20039;-72
2022/10/29 08:54:10;;;;;;;28.50;15.02;;;;;;;;;;5124654;27;20047;-71
2022/10/29 08:56:36;;;;;;;26.42;14.18;;;;;;;;;;5108196;27;20035;-72
2022/10/29 08:59:05;;;;;;;27.23;14.07;;;;;;;;;;5116229;27;20039;-70
2022/10/29 09:01:32;;;;;;;28.15;15.00;;;;;;;;;;5107174;27;20036;-72
2022/10/29 09:03:58;;;;;;;31.52;15.75;;;;;;;;;;5094959;27;20126;-75
2022/10/29 09:06:33;;;;;;;27.98;15.68;;;;;;;;;;5103424;27;20039;-69
2022/10/29 09:09:05;;;;;;;25.15;15.30;;;;;;;;;;5121532;27;20031;-69
2022/10/29 09:11:47;;;;;;;27.30;15.40;;;;;;;;;;5111897;27;20153;-70
2022/10/29 09:14:32;;;;;;;28.52;15.68;;;;;;;;;;5116138;28;20039;-69
2022/10/29 09:17:03;;;;;;;29.65;15.05;;;;;;;;;;5124773;27;20051;-69
2022/10/29 09:19:36;;;;;;;31.13;15.05;;;;;;;;;;5100469;28;20062;-69
2022/10/29 09:22:14;;;;;;;28.15;16.77;;;;;;;;;;5105558;27;20039;-69
2022/10/29 09:24:40;;;;;;;29.52;15.88;;;;;;;;;;5135938;27;20066;-69
2022/10/29 09:27:25;;;;;;;32.65;17.00;;;;;;;;;;5100569;27;20505;-69
2022/10/29 09:30:08;;;;;;;32.55;17.13;;;;;;;;;;5117357;27;20126;-69
2022/10/29 09:32:34;;;;;;;33.40;17.35;;;;;;;;;;5123993;27;20031;-69
2022/10/29 09:35:02;;;;;;;32.90;17.77;;;;;;;;;;5135807;27;20050;-69
2022/10/29 09:37:34;;;;;;;28.67;16.80;;;;;;;;;;5135963;27;20043;-69
2022/10/29 09:40:04;;;;;;;33.38;18.42;;;;;;;;;;5116852;27;20047;-69
2022/10/29 09:42:35;;;;;;;27.45;16.27;;;;;;;;;;5108197;27;20488;-69
2022/10/29 09:45:08;;;;;;;34.72;18.15;;;;;;;;;;5101882;28;20036;-69
2022/10/29 09:47:34;;;;;;;34.58;17.70;;;;;;;;;;5113814;27;20046;-69
2022/10/29 09:50:14;;;;;;;35.47;17.77;;;;;;;;;;5114897;27;20042;-69
2022/10/29 09:52:41;;;;;;;33.95;17.70;;;;;;;;;;5098495;27;20114;-69
2022/10/29 09:55:10;;;;;;;32.35;17.08;;;;;;;;;;5118773;27;20046;-69
2022/10/29 09:57:38;;;;;;;33.70;17.23;;;;;;;;;;5114953;28;20119;-77
2022/10/29 10:00:05;;;;;;;34.08;16.73;;;;;;;;;;5086137;28;20074;-78
2022/10/29 10:02:36;;;;;;;30.33;17.08;;;;;;;;;;5114111;27;20046;-78
2022/10/29 10:05:06;;;;;;;34.20;16.55;;;;;;;;;;5122786;27;20046;-78
2022/10/29 10:07:33;;;;;;;32.97;18.05;;;;;;;;;;5117207;27;20039;-78
2022/10/29 10:10:00;;;;;;;30.42;16.00;;;;;;;;;;5116440;27;20043;-78
2022/10/29 10:12:27;;;;;;;25.88;14.50;;;;;;;;;;5131942;27;20138;-75
2022/10/29 10:15:16;;;;;;;24.90;13.02;;;;;;;;;;5113313;27;20508;-77
2022/10/29 10:17:55;;;;;;;27.60;12.15;;;;;;;;;;5110226;27;20046;-77
2022/10/29 10:20:50;;;;;;;22.00;11.52;;;;;;;;;;5103803;27;20043;-77
2022/10/29 10:23:22;;;;;;;16.55;10.40;;;;;;;;;;5006639;27;20083;-80
2022/10/29 10:25:49;;;;;;;22.48;11.20;;;;;;;;;;5105869;27;20045;-83
2022/10/29 10:28:16;;;;;;;23.75;10.82;;;;;;;;;;5123084;27;20039;-79
2022/10/29 10:30:42;;;;;;;21.17;10.60;;;;;;;;;;5135398;27;20043;-80
2022/10/29 10:33:21;;;;;;;21.95;10.35;;;;;;;;;;5136245;27;20039;-81
2022/10/29 10:35:48;;;;;;;21.38;9.60;;;;;;;;;;5124294;27;20118;-80
2022/10/29 10:38:14;;;;;;;18.25;9.25;;;;;;;;;;5124408;27;20039;-80
2022/10/29 10:40:41;;;;;;;18.02;10.18;;;;;;;;;;5111894;27;20469;-80
2022/10/29 10:43:34;;;;;;;20.73;9.90;;;;;;;;;;5115676;27;20476;-80
2022/10/29 10:46:03;;;;;;;21.23;9.82;;;;;;;;;;5103235;28;20496;-80
2022/10/29 10:48:29;;;;;;;21.40;10.48;;;;;;;;;;5107402;28;20476;-80
2022/10/29 10:51:15;;;;;;;23.58;10.85;;;;;;;;;;5096606;28;20038;-80
2022/10/29 10:53:42;;;;;;;19.70;11.00;;;;;;;;;;5069434;27;20048;-80
2022/10/29 10:56:14;;;;;;;19.90;10.77;;;;;;;;;;5107731;27;20031;-70
2022/10/29 10:58:43;;;;;;;18.10;9.73;;;;;;;;;;5119498;27;20568;-70
2022/10/29 11:01:12;;;;;;;25.42;10.68;;;;;;;;;;5105112;27;20553;-70
2022/10/29 11:03:49;;;;;;;20.05;10.43;;;;;;;;;;5103413;28;20039;-69
2022/10/29 11:06:28;;;;;;;22.52;10.48;;;;;;;;;;5099624;28;20440;-70
2022/10/29 11:08:57;;;;;;;21.85;10.45;;;;;;;;;;5103788;27;20055;-70
2022/10/29 11:11:30;;;;;;;24.60;11.02;;;;;;;;;;5106147;27;20128;-69
2022/10/29 11:14:00;;;;;;;23.13;10.75;;;;;;;;;;5078336;28;20487;-70
2022/10/29 11:16:40;;;;;;;22.45;10.93;;;;;;;;;;5101546;27;20040;-69
2022/10/29 11:19:23;;;;;;;18.70;9.77;;;;;;;;;;5114945;27;20088;-70
2022/10/29 11:21:55;;;;;;;22.63;10.68;;;;;;;;;;5104995;27;20483;-70
2022/10/29 11:24:36;;;;;;;25.38;10.77;;;;;;;;;;5106596;27;20047;-69
2022/10/29 11:27:05;;;;;;;21.77;10.88;;;;;;;;;;5098355;27;20225;-69
2022/10/29 11:29:39;;;;;;;27.58;10.35;;;;;;;;;;5111421;27;20042;-70
2022/10/29 11:32:11;;;;;;;20.65;10.95;;;;;;;;;;5128366;27;20084;-70
2022/10/29 11:34:38;;;;;;;28.60;11.45;;;;;;;;;;5113291;28;20053;-70
2022/10/29 11:37:24;;;;;;;22.77;10.45;;;;;;;;;;5094392;28;20036;-70
2022/10/29 11:39:53;;;;;;;26.25;11.35;;;;;;;;;;5097033;27;20081;-70
2022/10/29 11:42:19;;;;;;;21.23;11.13;;;;;;;;;;5118065;27;20073;-69
2022/10/29 11:44:45;;;;;;;20.60;10.82;;;;;;;;;;5083280;28;20181;-70
2022/10/29 11:47:22;;;;;;;17.77;10.32;;;;;;;;;;5082619;27;20046;-69
2022/10/29 11:50:14;;;;;;;21.00;10.50;;;;;;;;;;5103515;27;20499;-70
2022/10/29 11:52:46;;;;;;;21.55;10.73;;;;;;;;;;5094377;28;20071;-70
2022/10/29 11:55:19;;;;;;;24.17;10.43;;;;;;;;;;5105563;27;20548;-69
2022/10/29 11:58:12;;;;;;;19.92;10.48;;;;;;;;;;5094299;28;20126;-69
2022/10/29 12:00:49;;;;;;;19.48;10.77;;;;;;;;;;5101367;27;20070;-69
2022/10/29 12:03:18;;;;;;;17.42;10.02;;;;;;;;;;5098274;28;20043;-70
2022/10/29 12:05:49;;;;;;;23.90;10.77;;;;;;;;;;5116266;27;20031;-69
2022/10/29 12:08:15;;;;;;;23.58;11.18;;;;;;;;;;5093376;28;20043;-69
2022/10/29 12:11:00;;;;;;;19.77;10.45;;;;;;;;;;5107375;27;20396;-69
2022/10/29 12:13:42;;;;;;;24.85;10.27;;;;;;;;;;5069846;28;20075;-69
2022/10/29 12:16:27;;;;;;;22.80;10.85;;;;;;;;;;5063148;28;20055;-70
2022/10/29 12:19:10;;;;;;;17.20;10.45;;;;;;;;;;5082782;28;20604;-69
2022/10/29 12:21:45;;;;;;;28.52;11.88;;;;;;;;;;5087831;28;20040;-70
2022/10/29 12:24:17;;;;;;;20.30;10.32;;;;;;;;;;5078023;28;20044;-69
2022/10/29 12:27:22;;;;;;;22.35;11.85;;;;;;;;;;5093459;28;20048;-70
2022/10/29 12:29:48;;;;;;;28.83;11.85;;;;;;;;;;5036065;28;20057;-70
2022/10/29 12:32:23;;;;;;;23.95;12.07;;;;;;;;;;5014793;28;20128;-69
2022/10/29 12:34:49;;;;;;;21.58;11.75;;;;;;;;;;5048714;28;20104;-69
2022/10/29 12:37:21;;;;;;;20.52;10.88;;;;;;;;;;5086354;28;20040;-70
2022/10/29 12:39:49;;;;;;;27.52;12.15;;;;;;;;;;5062482;28;20130;-69
2022/10/29 12:42:23;;;;;;;27.35;11.93;;;;;;;;;;5098525;28;20118;-70
2022/10/29 12:45:00;;;;;;;23.52;11.90;;;;;;;;;;5083343;28;20040;-70
2022/10/29 12:47:33;;;;;;;28.88;12.02;;;;;;;;;;5071185;28;20396;-80
2022/10/29 12:50:19;;;;;;;19.70;11.20;;;;;;;;;;5092328;28;20132;-80
2022/10/29 12:53:00;;;;;;;27.55;11.80;;;;;;;;;;5076664;28;20182;-79
2022/10/29 12:55:27;;;;;;;24.65;11.27;;;;;;;;;;5095614;28;20039;-80
2022/10/29 12:57:53;;;;;;;19.77;10.90;;;;;;;;;;5078625;28;20032;-80
2022/10/29 13:00:22;;;;;;;22.38;10.30;;;;;;;;;;5094211;28;20063;-80
2022/10/29 13:02:50;;;;;;;22.98;11.02;;;;;;;;;;5085027;28;20036;-80
2022/10/29 13:05:35;;;;;;;22.42;10.63;;;;;;;;;;5081677;28;20049;-80
2022/10/29 13:08:04;;;;;;;20.30;10.60;;;;;;;;;;5082129;28;20048;-80
2022/10/29 13:10:33;;;;;;;20.85;11.13;;;;;;;;;;5081564;28;20067;-80
2022/10/29 13:12:59;;;;;;;19.77;11.02;;;;;;;;;;5107369;27;20043;-79
2022/10/29 13:15:30;;;;;;;21.50;10.90;;;;;;;;;;5110533;27;20392;-80
2022/10/29 13:17:57;;;;;;;17.88;10.77;;;;;;;;;;5097915;28;20048;-81
2022/10/29 13:20:38;;;;;;;22.08;11.02;;;;;;;;;;5097058;28;20572;-74
2022/10/29 13:23:26;;;;;;;22.27;10.45;;;;;;;;;;5112933;27;20103;-80
2022/10/29 13:25:59;;;;;;;19.55;9.55;;;;;;;;;;5119599;27;20044;-80
2022/10/29 13:28:25;;;;;;;20.00;10.20;;;;;;;;;;5117490;28;20044;-81
2022/10/29 13:31:11;;;;;;;17.23;9.85;;;;;;;;;;5116260;28;20040;-80
2022/10/29 13:33:37;;;;;;;21.08;10.18;;;;;;;;;;5071231;27;20096;-81
2022/10/29 13:36:05;;;;;;;19.88;9.73;;;;;;;;;;5115940;28;20510;-79
2022/10/29 13:38:40;;;;;;;19.63;9.80;;;;;;;;;;5107011;28;20050;-80
2022/10/29 13:41:15;;;;;;;23.10;9.70;;;;;;;;;;5110414;28;20572;-80
2022/10/29 13:43:53;;;;;;;22.55;9.80;;;;;;;;;;5110283;27;20530;-80
2022/10/29 13:46:42;;;;;;;24.20;10.77;;;;;;;;;;5112328;27;20047;-80
2022/10/29 13:49:10;;;;;;;20.27;10.57;;;;;;;;;;5088320;28;20508;-80
2022/10/29 13:51:55;;;;;;;24.27;10.65;;;;;;;;;;5095562;28;20081;-79
2022/10/29 13:54:24;;;;;;;21.02;10.45;;;;;;;;;;5116463;27;20101;-80
2022/10/29 13:57:20;;;;;;;21.05;9.85;;;;;;;;;;5106078;27;20047;-78
2022/10/29 13:59:49;;;;;;;24.15;10.55;;;;;;;;;;5079774;28;20050;-80
2022/10/29 14:02:23;;;;;;;21.58;9.32;;;;;;;;;;5113116;28;20067;-80
2022/10/29 14:04:51;;;;;;;24.52;9.43;;;;;;;;;;5113318;27;20079;-79
2022/10/29 14:07:20;;;;;;;21.02;9.90;;;;;;;;;;5110176;28;20047;-80
2022/10/29 14:09:50;;;;;;;19.35;9.40;;;;;;;;;;5109016;27;20039;-79
2022/10/29 14:12:19;;;;;;;17.48;9.30;;;;;;;;;;5108137;27;20054;-79
2022/10/29 14:14:54;;;;;;;23.73;9.48;;;;;;;;;;5095332;27;20046;-78
2022/10/29 14:17:20;;;;;;;20.45;8.90;;;;;;;;;;5107617;27;20040;-80
2022/10/29 14:19:50;;;;;;;21.60;9.45;;;;;;;;;;5090668;28;20039;-70
2022/10/29 14:22:23;;;;;;;17.95;9.27;;;;;;;;;;5101362;28;20040;-71
2022/10/29 14:24:49;;;;;;;20.13;9.60;;;;;;;;;;5112654;28;20070;-71
2022/10/29 14:27:15;;;;;;;19.83;9.25;;;;;;;;;;5112840;28;20067;-70
2022/10/29 14:29:41;;;;;;;22.73;9.10;;;;;;;;;;5110995;28;20126;-70
2022/10/29 14:32:11;;;;;;;24.23;9.63;;;;;;;;;;5108554;28;20035;-80
2022/10/29 14:34:39;;;;;;;16.77;8.68;;;;;;;;;;5096150;28;20417;-80